Time;durP1;ratioP1;P1;durP2;ratioP2;P2;SDS_P1;SDS_P2;PMS_P1;PMS_P2;Temp;Humidity;BMP_temperature;BMP_pressure;BME280_temperature;BME280_humidity;BME280_pressure;Samples;Min_cycle;Max_cycle;Signal;HPM_P1;HPM_P2
2023/09/19 00:00:00;;;;;;;7.00;5.50;;;;;;;15.12;100.00;100694.86;104344;1256;72983;-51
2023/09/19 00:02:30;;;;;;;6.90;5.90;;;;;;;15.09;100.00;100698.77;104613;1256;65798;-52
2023/09/19 00:04:58;;;;;;;7.50;6.90;;;;;;;15.06;100.00;100695.67;104566;1258;71694;-52
2023/09/19 00:07:25;;;;;;;10.80;6.70;;;;;;;15.03;100.00;100699.30;104608;1256;59643;-51
2023/09/19 00:09:54;;;;;;;7.90;6.50;;;;;;;15.01;100.00;100698.70;106610;1257;59983;-52
2023/09/19 00:12:22;;;;;;;9.60;6.60;;;;;;;14.98;100.00;100696.11;104839;1260;71898;-50
2023/09/19 00:14:49;;;;;;;6.70;6.00;;;;;;;14.94;100.00;100693.62;104507;1257;66924;-52
2023/09/19 00:17:16;;;;;;;9.20;6.80;;;;;;;14.91;100.00;100692.68;104662;1256;71428;-50
2023/09/19 00:19:46;;;;;;;8.20;5.90;;;;;;;14.89;100.00;100693.73;104685;1258;60191;-51
2023/09/19 00:22:15;;;;;;;7.00;6.20;;;;;;;14.86;100.00;100692.61;104680;1256;60023;-52
2023/09/19 00:24:42;;;;;;;7.20;6.10;;;;;;;14.84;100.00;100694.30;104602;1259;74144;-51
2023/09/19 00:27:10;;;;;;;9.70;6.90;;;;;;;14.82;100.00;100694.25;104658;1264;66244;-51
2023/09/19 00:29:37;;;;;;;11.50;5.90;;;;;;;14.80;100.00;100696.35;104770;1261;72402;-52
2023/09/19 00:32:06;;;;;;;9.70;6.90;;;;;;;14.78;100.00;100693.92;104734;1256;60086;-52
2023/09/19 00:34:34;;;;;;;13.50;7.50;;;;;;;14.76;100.00;100693.80;104729;1256;60463;-51
2023/09/19 00:37:01;;;;;;;7.20;6.50;;;;;;;14.75;100.00;100692.42;105627;1259;71815;-52
2023/09/19 00:39:31;;;;;;;8.40;6.70;;;;;;;14.74;100.00;100691.91;104588;1256;67110;-52
2023/09/19 00:42:04;;;;;;;8.50;6.20;;;;;;;14.73;100.00;100691.80;105251;1259;70422;-51
2023/09/19 00:44:34;;;;;;;10.50;7.20;;;;;;;14.71;100.00;100691.00;105959;1256;60124;-50
2023/09/19 00:47:02;;;;;;;9.80;6.20;;;;;;;14.71;100.00;100687.60;105690;1256;59287;-52
2023/09/19 00:49:33;;;;;;;6.80;6.00;;;;;;;14.69;100.00;100686.40;105214;1256;72514;-51
2023/09/19 00:52:01;;;;;;;6.10;5.50;;;;;;;14.69;100.00;100687.15;104501;1263;65736;-50
2023/09/19 00:54:29;;;;;;;7.40;6.70;;;;;;;14.67;100.00;100687.42;104460;1256;72175;-52
2023/09/19 00:56:57;;;;;;;8.10;6.20;;;;;;;14.66;100.00;100682.58;104652;1257;59728;-51
2023/09/19 00:59:24;;;;;;;13.20;6.30;;;;;;;14.66;100.00;100684.04;104593;1256;60500;-51
2023/09/19 01:01:54;;;;;;;7.10;5.90;;;;;;;14.64;100.00;100680.13;104425;1260;73988;-52
2023/09/19 01:04:21;;;;;;;6.40;5.90;;;;;;;14.63;100.00;100677.65;104544;1264;65745;-50
2023/09/19 01:06:53;;;;;;;10.50;5.90;;;;;;;14.63;100.00;100680.39;104697;1256;72747;-50
2023/09/19 01:09:20;;;;;;;8.50;5.50;;;;;;;14.62;100.00;100677.38;104605;1259;59756;-50
2023/09/19 01:11:50;;;;;;;7.60;5.40;;;;;;;14.61;100.00;100676.34;104995;1256;60234;-50
2023/09/19 01:14:34;;;;;;;8.60;6.90;;;;;;;14.60;100.00;100670.77;104833;1261;73111;-51
2023/09/19 01:17:30;;;;;;;7.30;6.60;;;;;;;14.60;100.00;100665.56;104571;1259;65546;-51
2023/09/19 01:20:30;;;;;;;6.20;5.30;;;;;;;14.59;100.00;100662.16;105738;1256;73165;-51
2023/09/19 01:23:31;;;;;;;8.00;4.90;;;;;;;14.58;100.00;100662.21;104607;1256;60866;-50
2023/09/19 01:26:08;;;;;;;6.40;5.90;;;;;;;14.58;100.00;100664.77;104452;1263;60587;-51
2023/09/19 01:29:13;;;;;;;7.00;6.20;;;;;;;14.56;100.00;100659.77;108565;1255;71854;-52
2023/09/19 01:31:41;;;;;;;5.90;5.30;;;;;;;14.55;100.00;100660.20;108626;1256;65831;-52
2023/09/19 01:34:08;;;;;;;8.00;3.80;;;;;;;14.54;100.00;100655.38;108586;1256;71440;-52
2023/09/19 01:36:36;;;;;;;6.80;5.00;;;;;;;14.55;100.00;100651.75;108712;1257;60764;-49
2023/09/19 01:39:12;;;;;;;4.70;4.40;;;;;;;14.55;100.00;100649.35;108830;1256;60560;-52
2023/09/19 01:41:49;;;;;;;5.30;4.80;;;;;;;14.57;100.00;100647.99;108816;1256;74764;-52
2023/09/19 01:44:24;;;;;;;5.90;5.30;;;;;;;14.59;100.00;100647.70;108685;1256;66744;-51
2023/09/19 01:46:51;;;;;;;6.10;5.60;;;;;;;14.62;100.00;100648.49;108583;1256;72428;-52
2023/09/19 01:49:27;;;;;;;7.60;5.10;;;;;;;14.62;100.00;100648.12;108310;1256;58854;-52
2023/09/19 01:52:09;;;;;;;6.00;5.50;;;;;;;14.63;100.00;100645.39;108649;1260;60260;-52
2023/09/19 01:54:41;;;;;;;6.30;5.10;;;;;;;14.63;100.00;100642.63;108564;1256;74314;-52
2023/09/19 01:57:17;;;;;;;6.20;5.60;;;;;;;14.64;100.00;100638.41;108494;1256;67437;-52
2023/09/19 02:00:11;;;;;;;6.50;5.40;;;;;;;14.64;100.00;100635.34;108502;1258;71456;-52
2023/09/19 02:02:40;;;;;;;6.50;5.50;;;;;;;14.65;100.00;100636.76;108580;1256;60209;-52
2023/09/19 02:05:07;;;;;;;6.20;4.90;;;;;;;14.64;100.00;100632.63;108563;1258;60083;-52
2023/09/19 02:07:37;;;;;;;7.80;6.20;;;;;;;14.64;100.00;100631.21;108719;1256;72629;-52
2023/09/19 02:10:06;;;;;;;8.90;6.10;;;;;;;14.63;100.00;100629.05;108748;1256;65425;-52
2023/09/19 02:12:35;;;;;;;5.50;5.00;;;;;;;14.62;100.00;100622.47;104967;1256;71472;-51
2023/09/19 02:15:06;;;;;;;5.70;4.90;;;;;;;14.61;100.00;100619.12;104534;1259;61622;-52
2023/09/19 02:17:34;;;;;;;6.80;5.90;;;;;;;14.60;100.00;100620.43;105559;1257;60566;-52
2023/09/19 02:20:10;;;;;;;10.50;5.40;;;;;;;14.57;100.00;100613.66;104606;1262;73936;-52
2023/09/19 02:22:38;;;;;;;10.60;5.40;;;;;;;14.55;100.00;100608.00;104604;1261;67737;-51
2023/09/19 02:25:07;;;;;;;5.80;5.30;;;;;;;14.53;100.00;100612.09;104677;1258;71438;-52
2023/09/19 02:27:36;;;;;;;5.20;4.70;;;;;;;14.50;100.00;100611.00;104819;1259;61207;-52
2023/09/19 02:30:06;;;;;;;9.00;5.30;;;;;;;14.47;100.00;100610.03;104528;1256;60601;-52
2023/09/19 02:32:36;;;;;;;7.00;5.50;;;;;;;14.45;100.00;100609.45;108634;1256;72672;-52
2023/09/19 02:35:05;;;;;;;5.50;4.60;;;;;;;14.42;100.00;100606.73;105639;1260;65653;-52
2023/09/19 02:37:33;;;;;;;8.80;6.80;;;;;;;14.38;100.00;100601.81;105298;1260;72539;-51
2023/09/19 02:40:00;;;;;;;9.90;5.40;;;;;;;14.36;100.00;100599.36;104769;1258;60879;-51
2023/09/19 02:42:28;;;;;;;8.40;5.30;;;;;;;14.35;100.00;100597.27;104710;1256;61067;-51
2023/09/19 02:44:56;;;;;;;6.00;5.20;;;;;;;14.33;100.00;100592.85;104563;1258;73888;-52
2023/09/19 02:47:24;;;;;;;10.50;6.00;;;;;;;14.31;100.00;100593.10;104590;1256;65668;-52
2023/09/19 02:49:51;;;;;;;5.40;4.70;;;;;;;14.29;100.00;100585.48;104684;1259;72280;-51
2023/09/19 02:52:19;;;;;;;4.90;4.40;;;;;;;14.27;100.00;100581.44;104585;1259;60565;-50
2023/09/19 02:54:46;;;;;;;8.80;4.50;;;;;;;14.26;100.00;100579.67;104565;1261;60433;-52
2023/09/19 02:57:16;;;;;;;5.50;4.30;;;;;;;14.25;100.00;100575.40;104390;1256;73789;-51
2023/09/19 02:59:44;;;;;;;6.30;5.60;;;;;;;14.24;100.00;100578.31;104428;1261;70691;-50
2023/09/19 03:02:11;;;;;;;4.60;3.80;;;;;;;14.24;100.00;100575.59;105020;1259;72899;-50
2023/09/19 03:04:39;;;;;;;5.80;5.30;;;;;;;14.25;100.00;100571.95;104994;1256;60558;-50
2023/09/19 03:07:11;;;;;;;6.40;4.90;;;;;;;14.26;100.00;100571.02;104567;1261;60526;-49
2023/09/19 03:09:38;;;;;;;7.00;4.70;;;;;;;14.26;100.00;100567.73;105314;1256;74044;-50
2023/09/19 03:12:06;;;;;;;5.90;5.40;;;;;;;14.27;100.00;100564.27;104559;1262;67020;-50
2023/09/19 03:14:35;;;;;;;5.40;5.00;;;;;;;14.26;100.00;100564.14;104607;1259;71405;-49
2023/09/19 03:17:04;;;;;;;6.00;5.20;;;;;;;14.24;100.00;100559.34;104186;1258;60520;-51
2023/09/19 03:19:33;;;;;;;5.60;5.10;;;;;;;14.23;100.00;100552.89;104537;1259;60492;-50
2023/09/19 03:22:02;;;;;;;5.00;4.60;;;;;;;14.21;100.00;100552.45;104967;1260;72646;-50
2023/09/19 03:24:31;;;;;;;6.50;5.60;;;;;;;14.19;100.00;100554.02;105247;1256;66653;-51
2023/09/19 03:26:59;;;;;;;5.50;5.00;;;;;;;14.16;100.00;100548.02;104888;1256;71017;-50
2023/09/19 03:29:26;;;;;;;6.20;5.20;;;;;;;14.15;100.00;100550.79;104534;1256;60912;-52
2023/09/19 03:31:54;;;;;;;5.70;5.10;;;;;;;14.12;100.00;100548.63;104582;1257;61038;-51
2023/09/19 03:34:22;;;;;;;5.20;4.70;;;;;;;14.09;100.00;100540.98;104174;1262;72527;-52
2023/09/19 03:36:49;;;;;;;5.30;4.90;;;;;;;14.06;100.00;100539.69;104297;1261;67018;-51
2023/09/19 03:39:17;;;;;;;5.40;5.00;;;;;;;14.03;100.00;100542.40;104861;1259;71442;-52
2023/09/19 03:41:45;;;;;;;5.30;4.60;;;;;;;13.99;100.00;100539.13;104198;1263;60527;-52
2023/09/19 03:44:15;;;;;;;4.90;3.50;;;;;;;13.97;100.00;100540.16;106183;1254;60466;-50
2023/09/19 03:46:42;;;;;;;8.60;4.40;;;;;;;13.94;100.00;100537.23;105482;1256;74314;-52
2023/09/19 03:49:10;;;;;;;4.80;3.50;;;;;;;13.93;100.00;100541.79;104475;1259;65090;-51
2023/09/19 03:51:37;;;;;;;5.20;4.50;;;;;;;13.93;100.00;100544.33;104398;1261;73164;-51
2023/09/19 03:54:05;;;;;;;8.60;4.70;;;;;;;13.93;100.00;100541.95;104667;1263;60651;-50
2023/09/19 03:56:32;;;;;;;6.30;3.90;;;;;;;13.95;100.00;100538.30;104464;1262;60561;-48
2023/09/19 03:58:59;;;;;;;6.30;4.30;;;;;;;13.96;100.00;100536.79;104350;1257;72640;-51
2023/09/19 04:01:28;;;;;;;7.00;4.80;;;;;;;13.97;100.00;100537.98;104607;1261;66753;-51
2023/09/19 04:03:56;;;;;;;5.70;5.00;;;;;;;13.98;100.00;100539.37;104342;1260;71470;-50
2023/09/19 04:06:24;;;;;;;7.30;4.50;;;;;;;13.99;100.00;100544.75;107191;1259;60451;-51
2023/09/19 04:08:52;;;;;;;4.10;3.80;;;;;;;13.99;100.00;100542.95;104573;1263;60491;-51
2023/09/19 04:11:19;;;;;;;6.90;4.80;;;;;;;13.98;100.00;100545.11;104630;1262;72052;-50
2023/09/19 04:13:47;;;;;;;12.80;5.60;;;;;;;13.99;100.00;100542.21;104724;1256;67910;-50
2023/09/19 04:16:15;;;;;;;5.40;3.90;;;;;;;13.98;100.00;100540.25;104646;1258;73159;-50
2023/09/19 04:18:42;;;;;;;6.20;4.80;;;;;;;13.99;100.00;100542.42;104515;1260;60460;-51
2023/09/19 04:21:10;;;;;;;6.00;4.30;;;;;;;13.97;100.00;100538.86;104359;1260;60573;-51
2023/09/19 04:23:38;;;;;;;4.80;4.00;;;;;;;13.97;100.00;100535.60;108663;1261;72791;-52
2023/09/19 04:26:06;;;;;;;4.90;4.30;;;;;;;13.97;100.00;100532.38;108550;1257;68933;-50
2023/09/19 04:28:36;;;;;;;6.10;4.80;;;;;;;13.97;100.00;100530.20;108732;1261;73123;-52
2023/09/19 04:31:03;;;;;;;6.10;5.30;;;;;;;13.98;100.00;100529.08;108639;1256;62208;-53
2023/09/19 04:33:31;;;;;;;4.00;3.70;;;;;;;14.00;100.00;100527.19;108418;1257;59658;-52
2023/09/19 04:35:59;;;;;;;8.70;4.20;;;;;;;14.03;100.00;100525.79;108610;1259;72658;-52
2023/09/19 04:38:47;;;;;;;3.70;3.40;;;;;;;14.08;100.00;100529.50;108672;1262;65759;-51
2023/09/19 04:41:15;;;;;;;4.90;2.90;;;;;;;14.13;100.00;100527.08;108784;1258;72209;-52
2023/09/19 04:43:42;;;;;;;3.80;3.50;;;;;;;14.20;100.00;100526.55;108659;1259;58855;-51
2023/09/19 04:46:10;;;;;;;7.00;4.40;;;;;;;14.27;100.00;100521.47;108840;1260;60113;-52
2023/09/19 04:48:38;;;;;;;6.90;4.30;;;;;;;14.36;100.00;100519.75;108862;1257;74338;-52
2023/09/19 04:51:05;;;;;;;6.50;4.30;;;;;;;14.45;100.00;100519.30;108737;1256;65852;-52
2023/09/19 04:53:32;;;;;;;5.00;4.60;;;;;;;14.58;100.00;100522.96;108873;1256;71482;-52
2023/09/19 04:56:00;;;;;;;4.40;4.10;;;;;;;14.74;100.00;100515.95;108737;1256;60397;-52
2023/09/19 04:58:28;;;;;;;6.90;4.20;;;;;;;14.87;100.00;100515.81;108786;1255;59968;-51
2023/09/19 05:00:56;;;;;;;5.30;4.90;;;;;;;14.95;100.00;100512.10;108820;1256;73923;-52
2023/09/19 05:03:23;;;;;;;6.20;4.30;;;;;;;15.02;100.00;100512.64;108304;1260;68178;-50
2023/09/19 05:05:50;;;;;;;9.50;3.90;;;;;;;15.06;100.00;100514.55;104775;1259;72730;-51
2023/09/19 05:08:18;;;;;;;3.70;3.40;;;;;;;15.10;100.00;100516.69;104817;1263;60480;-51
2023/09/19 05:10:45;;;;;;;4.20;3.60;;;;;;;15.15;100.00;100512.11;104665;1258;60449;-52
2023/09/19 05:13:13;;;;;;;6.40;5.10;;;;;;;15.18;100.00;100513.01;104856;1257;72698;-50
2023/09/19 05:15:41;;;;;;;4.30;4.00;;;;;;;15.22;100.00;100512.11;106320;1262;65787;-51
2023/09/19 05:18:08;;;;;;;6.80;4.10;;;;;;;15.24;100.00;100513.56;104789;1262;70908;-52
2023/09/19 05:20:37;;;;;;;5.30;3.70;;;;;;;15.28;100.00;100510.30;105220;1258;60624;-50
2023/09/19 05:23:07;;;;;;;3.60;3.40;;;;;;;15.32;100.00;100508.09;105023;1259;60595;-50
2023/09/19 05:25:39;;;;;;;5.00;4.50;;;;;;;15.36;100.00;100509.31;104937;1261;73795;-51
2023/09/19 05:28:07;;;;;;;4.30;4.00;;;;;;;15.40;100.00;100503.27;104718;1257;66225;-49
2023/09/19 05:30:43;;;;;;;5.10;4.60;;;;;;;15.45;100.00;100503.56;105094;1261;73610;-50
2023/09/19 05:33:13;;;;;;;6.00;3.70;;;;;;;15.50;100.00;100497.80;104792;1262;60733;-51
2023/09/19 05:35:41;;;;;;;3.90;3.50;;;;;;;15.56;100.00;100497.89;104809;1260;60933;-49
2023/09/19 05:38:09;;;;;;;5.20;4.70;;;;;;;15.63;100.00;100495.69;104724;1264;72956;-52
2023/09/19 05:40:38;;;;;;;4.70;4.30;;;;;;;15.70;100.00;100499.05;105090;1258;65803;-51
2023/09/19 05:43:06;;;;;;;3.60;3.30;;;;;;;15.77;100.00;100495.58;104699;1262;72522;-51
2023/09/19 05:45:34;;;;;;;4.60;4.20;;;;;;;15.85;100.00;100496.36;104766;1262;60437;-51
2023/09/19 05:48:09;;;;;;;5.00;3.30;;;;;;;15.94;100.00;100490.63;104815;1260;60485;-50
2023/09/19 05:50:36;;;;;;;6.10;3.20;;;;;;;16.03;100.00;100494.08;104651;1261;73886;-52
2023/09/19 05:53:04;;;;;;;5.30;3.10;;;;;;;16.11;100.00;100490.30;104775;1257;66810;-49
2023/09/19 05:55:32;;;;;;;7.10;3.40;;;;;;;16.19;100.00;100490.17;105726;1264;70490;-50
2023/09/19 05:57:59;;;;;;;2.90;2.70;;;;;;;16.28;100.00;100490.58;104859;1258;61724;-51
2023/09/19 06:00:27;;;;;;;2.90;2.70;;;;;;;16.37;100.00;100488.05;104729;1261;61406;-51
2023/09/19 06:02:56;;;;;;;4.00;2.90;;;;;;;16.45;100.00;100489.14;104713;1265;72724;-50
2023/09/19 06:05:26;;;;;;;7.40;4.50;;;;;;;16.55;100.00;100487.81;104852;1265;65651;-50
2023/09/19 06:07:54;;;;;;;4.70;3.40;;;;;;;16.65;100.00;100491.02;105006;1260;72758;-50
2023/09/19 06:10:23;;;;;;;4.00;3.20;;;;;;;16.77;100.00;100490.51;105032;1262;60493;-52
2023/09/19 06:12:51;;;;;;;4.50;3.40;;;;;;;16.88;100.00;100492.15;104698;1257;60495;-51
2023/09/19 06:15:24;;;;;;;4.10;3.00;;;;;;;16.99;100.00;100489.08;104589;1258;73886;-51
2023/09/19 06:17:56;;;;;;;7.30;3.40;;;;;;;17.18;100.00;100494.61;105036;1262;67912;-51
2023/09/19 06:20:25;;;;;;;2.30;2.10;;;;;;;17.29;100.00;100491.52;105116;1262;71567;-51
2023/09/19 06:22:53;;;;;;;6.80;3.00;;;;;;;17.40;100.00;100492.45;104973;1257;60413;-50
2023/09/19 06:25:21;;;;;;;4.20;2.60;;;;;;;17.48;100.00;100491.18;105900;1257;60521;-50
2023/09/19 06:27:54;;;;;;;4.00;2.40;;;;;;;17.58;100.00;100492.75;105552;1257;73934;-49
2023/09/19 06:30:26;;;;;;;4.00;3.30;;;;;;;17.66;100.00;100494.55;104859;1263;67236;-49
2023/09/19 06:32:57;;;;;;;5.80;3.00;;;;;;;17.75;100.00;100497.98;104579;1261;71443;-51
2023/09/19 06:35:27;;;;;;;6.80;3.60;;;;;;;17.84;100.00;100495.41;105751;1260;61863;-51
2023/09/19 06:37:57;;;;;;;5.90;3.20;;;;;;;17.92;100.00;100493.40;104587;1262;60478;-51
2023/09/19 06:40:27;;;;;;;4.60;3.00;;;;;;;18.01;100.00;100491.45;105412;1262;72687;-50
2023/09/19 06:42:55;;;;;;;3.10;2.70;;;;;;;18.11;100.00;100491.31;106370;1260;68065;-51
2023/09/19 06:45:26;;;;;;;4.00;2.40;;;;;;;18.21;100.00;100489.93;104914;1262;72740;-51
2023/09/19 06:47:57;;;;;;;2.50;2.30;;;;;;;18.32;100.00;100486.49;104605;1257;60835;-51
2023/09/19 06:50:26;;;;;;;2.40;2.20;;;;;;;18.41;100.00;100484.90;104935;1257;60532;-53
2023/09/19 06:52:55;;;;;;;9.20;2.70;;;;;;;18.50;100.00;100484.48;105165;1261;72720;-52
2023/09/19 06:55:25;;;;;;;2.30;2.10;;;;;;;18.59;100.00;100483.19;104994;1258;66311;-52
2023/09/19 06:57:54;;;;;;;3.90;2.40;;;;;;;18.66;100.00;100486.30;104725;1257;71480;-53
2023/09/19 07:00:22;;;;;;;5.20;3.50;;;;;;;18.75;100.00;100485.67;107007;1257;60572;-53
2023/09/19 07:03:00;;;;;;;4.70;3.00;;;;;;;18.84;100.00;100485.02;105485;1260;60322;-53
2023/09/19 07:05:29;;;;;;;3.50;2.90;;;;;;;18.96;100.00;100488.59;104809;1257;74829;-52
2023/09/19 07:08:00;;;;;;;2.70;2.30;;;;;;;19.05;100.00;100487.69;105129;1261;66162;-53
2023/09/19 07:10:28;;;;;;;3.10;2.30;;;;;;;19.15;100.00;100486.62;107548;1253;71435;-51
2023/09/19 07:12:57;;;;;;;2.90;1.80;;;;;;;19.25;100.00;100486.08;104866;1254;60700;-51
2023/09/19 07:15:26;;;;;;;3.90;1.70;;;;;;;19.35;100.00;100490.83;104640;1254;60604;-52
2023/09/19 07:17:53;;;;;;;5.90;2.30;;;;;;;19.43;100.00;100489.09;104834;1254;73857;-51
2023/09/19 07:20:21;;;;;;;2.20;1.90;;;;;;;19.53;100.00;100490.05;109031;1253;64603;-53
2023/09/19 07:22:50;;;;;;;4.00;1.80;;;;;;;19.63;100.00;100489.66;109092;1252;70696;-53
2023/09/19 07:25:18;;;;;;;7.50;2.50;;;;;;;19.73;100.00;100488.56;108958;1254;59589;-52
2023/09/19 07:27:46;;;;;;;2.50;2.20;;;;;;;19.84;100.00;100483.00;109064;1258;59458;-53
2023/09/19 07:30:14;;;;;;;7.40;2.10;;;;;;;19.96;100.00;100481.70;109095;1254;72682;-53
2023/09/19 07:32:42;;;;;;;2.00;1.90;;;;;;;20.07;100.00;100478.52;109124;1252;67776;-53
2023/09/19 07:35:09;;;;;;;3.10;1.80;;;;;;;20.17;100.00;100474.63;109014;1253;72734;-53
2023/09/19 07:37:37;;;;;;;1.90;1.40;;;;;;;20.29;100.00;100470.83;109048;1254;60173;-53
2023/09/19 07:40:09;;;;;;;3.80;1.50;;;;;;;20.41;100.00;100468.98;109237;1253;59028;-53
2023/09/19 07:42:39;;;;;;;2.60;1.10;;;;;;;20.52;100.00;100469.55;109018;1252;73968;-53
2023/09/19 07:45:07;;;;;;;8.70;1.90;;;;;;;20.63;100.00;100465.39;109021;1254;67114;-53
2023/09/19 07:47:36;;;;;;;5.50;1.40;;;;;;;20.73;100.00;100466.39;109136;1254;72701;-53
2023/09/19 07:50:04;;;;;;;2.40;1.10;;;;;;;20.85;100.00;100462.23;109076;1254;60104;-53
2023/09/19 07:52:33;;;;;;;1.10;1.00;;;;;;;20.97;100.00;100461.77;108954;1254;60527;-54
2023/09/19 07:55:06;;;;;;;3.50;0.90;;;;;;;21.07;100.00;100460.19;109004;1254;72661;-53
2023/09/19 07:57:34;;;;;;;1.30;0.90;;;;;;;21.18;100.00;100457.15;109103;1254;67078;-53
2023/09/19 08:00:04;;;;;;;1.00;0.80;;;;;;;21.30;100.00;100453.88;109074;1257;71740;-53
2023/09/19 08:02:38;;;;;;;3.60;0.90;;;;;;;21.40;100.00;100451.93;105286;1255;61206;-53
2023/09/19 08:05:09;;;;;;;4.10;0.90;;;;;;;21.49;100.00;100452.97;105280;1254;60630;-52
2023/09/19 08:07:38;;;;;;;2.80;0.70;;;;;;;21.60;100.00;100452.45;105499;1258;72754;-51
2023/09/19 08:10:15;;;;;;;1.20;0.60;;;;;;;21.70;100.00;100449.95;105796;1254;67526;-53
2023/09/19 08:12:46;;;;;;;2.70;0.80;;;;;;;21.80;100.00;100445.80;105394;1254;71483;-52
2023/09/19 08:15:14;;;;;;;0.70;0.60;;;;;;;21.90;100.00;100440.41;108952;1254;61790;-54
2023/09/19 08:17:42;;;;;;;4.60;0.60;;;;;;;21.98;100.00;100436.28;106165;1257;60557;-53
2023/09/19 08:20:17;;;;;;;2.70;0.80;;;;;;;22.05;100.00;100436.77;105381;1254;72655;-52
2023/09/19 08:22:49;;;;;;;3.80;0.80;;;;;;;22.12;100.00;100435.84;104928;1258;67350;-51
2023/09/19 08:25:20;;;;;;;0.90;0.70;;;;;;;22.18;100.00;100431.27;105607;1261;72770;-52
2023/09/19 08:27:49;;;;;;;2.40;0.70;;;;;;;22.25;100.00;100429.05;104832;1254;60599;-53
2023/09/19 08:30:23;;;;;;;1.20;0.60;;;;;;;22.31;100.00;100421.02;106451;1254;60590;-52
2023/09/19 08:33:04;;;;;;;1.80;0.80;;;;;;;22.38;100.00;100423.89;105190;1254;72694;-52
2023/09/19 08:35:32;;;;;;;4.30;1.00;;;;;;;22.45;100.00;100424.91;105121;1257;65657;-52
2023/09/19 08:38:04;;;;;;;6.00;0.80;;;;;;;22.53;100.00;100421.09;104995;1257;72777;-52
2023/09/19 08:40:33;;;;;;;2.80;0.70;;;;;;;22.61;100.00;100424.02;105103;1253;60989;-51
2023/09/19 08:43:01;;;;;;;1.50;0.60;;;;;;;22.68;100.00;100419.01;104803;1254;60432;-53
2023/09/19 08:45:28;;;;;;;4.30;0.60;;;;;;;22.75;100.00;100419.20;104908;1257;73967;-52
2023/09/19 08:48:28;;;;;;;4.70;0.70;;;;;;;22.81;100.00;100423.38;104987;1254;65621;-53
2023/09/19 08:50:58;;;;;;;0.80;0.70;;;;;;;22.88;100.00;100425.35;104604;1254;71477;-52
2023/09/19 08:54:05;;;;;;;3.20;0.70;;;;;;;22.91;100.00;100421.93;108587;1253;60553;-51
2023/09/19 08:56:33;;;;;;;5.60;0.60;;;;;;;22.95;100.00;100415.72;104912;1254;60560;-53
2023/09/19 08:59:03;;;;;;;2.20;0.70;;;;;;;22.98;100.00;100410.49;105050;1257;72641;-53
2023/09/19 09:01:32;;;;;;;1.00;0.80;;;;;;;23.03;100.00;100413.21;104952;1257;69038;-52
2023/09/19 09:04:01;;;;;;;2.50;0.60;;;;;;;23.08;100.00;100411.70;105601;1253;71469;-52
2023/09/19 09:06:29;;;;;;;2.50;0.70;;;;;;;23.12;100.00;100410.60;105105;1254;60653;-51
2023/09/19 09:08:57;;;;;;;5.10;0.70;;;;;;;23.17;100.00;100409.40;105052;1254;60326;-52
2023/09/19 09:11:24;;;;;;;1.90;0.90;;;;;;;23.22;100.00;100409.99;108429;1256;74097;-52
2023/09/19 09:13:52;;;;;;;7.00;0.70;;;;;;;23.25;100.00;100408.59;104960;1256;65656;-52
2023/09/19 09:16:20;;;;;;;5.20;1.40;;;;;;;23.29;100.00;100408.27;104669;1254;71545;-52
2023/09/19 09:18:52;;;;;;;2.20;0.70;;;;;;;23.32;100.00;100400.27;108901;1253;60201;-52
2023/09/19 09:21:21;;;;;;;1.60;0.60;;;;;;;23.36;100.00;100403.73;104728;1253;60452;-51
2023/09/19 09:23:53;;;;;;;4.80;0.70;;;;;;;23.41;100.00;100399.48;105368;1254;72733;-52
2023/09/19 09:26:40;;;;;;;2.20;0.60;;;;;;;23.45;100.00;100408.81;105373;1257;67057;-51
2023/09/19 09:29:07;;;;;;;1.50;0.70;;;;;;;23.49;100.00;100402.24;104916;1262;71475;-52
2023/09/19 09:31:36;;;;;;;1.90;0.60;;;;;;;23.52;100.00;100397.89;105049;1253;60560;-51
2023/09/19 09:34:04;;;;;;;4.50;0.70;;;;;;;23.56;100.00;100393.91;104878;1257;62622;-50
2023/09/19 09:38:46;;;;;;;3.80;1.10;;;;;;;23.61;100.00;100455.68;101988;1292;600815;-53
2023/09/19 09:41:15;;;;;;;3.70;0.70;;;;;;;23.65;100.00;100446.55;104382;1267;60689;-53
2023/09/19 09:43:46;;;;;;;8.80;0.70;;;;;;;23.67;100.00;100436.80;105727;1270;60113;-51
2023/09/19 09:51:59;;;;;;;5.30;0.70;;;;;;;23.75;100.00;100428.77;103929;1263;159786;-52
2023/09/19 09:54:34;;;;;;;1.30;0.60;;;;;;;23.76;100.00;100433.09;104233;1266;59264;-50
2023/09/19 09:57:13;;;;;;;2.90;0.70;;;;;;;23.78;100.00;100423.20;104961;1263;59494;-53
2023/09/19 09:59:47;;;;;;;2.40;0.80;;;;;;;23.80;100.00;100416.99;104503;1267;71085;-50
2023/09/19 10:02:24;;;;;;;;;;;;;;;23.82;100.00;100410.55;104399;1267;66174;-52
2023/09/19 10:05:05;;;;;;;9.20;0.70;;;;;;;23.85;100.00;100409.86;104182;1267;72679;-52
2023/09/19 10:07:35;;;;;;;7.80;0.70;;;;;;;23.89;100.00;100404.42;104233;1262;59738;-53
2023/09/19 10:10:12;;;;;;;1.40;0.60;;;;;;;23.92;100.00;100407.73;105499;1263;59694;-52
2023/09/19 10:12:42;;;;;;;0.60;0.60;;;;;;;23.96;100.00;100406.29;104207;1263;73536;-52
2023/09/19 10:15:11;;;;;;;4.10;0.70;;;;;;;23.99;100.00;100404.52;105424;1267;67103;-52
2023/09/19 10:17:38;;;;;;;1.20;0.80;;;;;;;24.01;100.00;100400.70;104192;1263;72982;-52
2023/09/19 10:20:17;;;;;;;4.90;0.70;;;;;;;24.03;100.00;100394.27;106049;1264;61954;-52
2023/09/19 10:22:56;;;;;;;1.50;0.50;;;;;;;24.06;100.00;100401.33;104949;1253;60542;-52
2023/09/19 10:25:25;;;;;;;1.00;0.60;;;;;;;24.09;100.00;100391.64;109132;1251;73528;-53
2023/09/19 10:27:53;;;;;;;3.10;0.70;;;;;;;24.11;100.00;100385.20;109199;1251;67506;-52
2023/09/19 10:30:22;;;;;;;4.10;0.60;;;;;;;24.15;100.00;100383.38;109058;1251;71743;-53
2023/09/19 10:32:56;;;;;;;2.40;0.50;;;;;;;24.19;100.00;100382.33;109233;1251;58831;-52
2023/09/19 10:35:24;;;;;;;4.10;0.60;;;;;;;24.23;100.00;100388.96;109130;1251;60048;-52
2023/09/19 10:37:52;;;;;;;2.90;0.80;;;;;;;24.26;100.00;100381.59;109111;1251;73475;-52
2023/09/19 10:40:20;;;;;;;3.60;1.00;;;;;;;24.29;100.00;100379.86;109088;1251;67241;-53
2023/09/19 10:42:48;;;;;;;1.10;0.60;;;;;;;24.31;100.00;100375.70;109012;1251;74416;-53
2023/09/19 10:45:16;;;;;;;0.90;0.70;;;;;;;24.32;100.00;100368.08;108919;1251;60168;-54
2023/09/19 10:47:44;;;;;;;1.40;0.60;;;;;;;24.34;100.00;100369.73;109152;1251;59001;-54
2023/09/19 10:50:21;;;;;;;0.90;0.60;;;;;;;24.36;100.00;100368.23;109209;1251;73072;-55
2023/09/19 10:52:51;;;;;;;9.20;0.60;;;;;;;24.37;100.00;100372.30;109026;1252;65666;-55
2023/09/19 10:55:19;;;;;;;3.00;0.60;;;;;;;24.41;100.00;100367.57;109220;1251;72831;-53
2023/09/19 10:57:48;;;;;;;0.90;0.60;;;;;;;24.43;100.00;100365.14;109131;1251;59248;-54
2023/09/19 11:00:24;;;;;;;1.70;0.60;;;;;;;24.44;100.00;100362.80;109082;1251;58902;-53
2023/09/19 11:03:11;;;;;;;5.90;0.80;;;;;;;24.44;100.00;100356.55;109078;1251;71881;-53
2023/09/19 11:05:40;;;;;;;1.30;0.60;;;;;;;24.45;100.00;100340.77;109035;1251;65851;-53
2023/09/19 11:08:08;;;;;;;3.10;0.70;;;;;;;24.46;100.00;100341.86;109086;1251;75489;-54
2023/09/19 11:10:49;;;;;;;1.90;0.60;;;;;;;24.48;100.00;100344.45;106089;1251;60664;-52
2023/09/19 11:13:27;;;;;;;3.70;0.70;;;;;;;24.51;100.00;100344.16;104953;1258;59822;-52
2023/09/19 11:15:57;;;;;;;3.40;0.70;;;;;;;24.53;100.00;100343.75;105125;1251;72816;-51
2023/09/19 11:19:01;;;;;;;5.20;1.00;;;;;;;24.55;100.00;100339.99;104934;1251;68896;-52
2023/09/19 11:21:29;;;;;;;1.80;0.60;;;;;;;24.55;100.00;100332.60;104736;1254;73783;-52
2023/09/19 11:24:15;;;;;;;5.30;0.70;;;;;;;24.55;100.00;100329.45;105508;1257;59690;-52
2023/09/19 11:26:49;;;;;;;4.50;0.90;;;;;;;24.56;100.00;100326.23;104869;1251;60545;-53
2023/09/19 11:29:30;;;;;;;6.80;0.60;;;;;;;24.56;100.00;100323.52;109075;1251;73538;-52
2023/09/19 11:31:59;;;;;;;5.70;0.50;;;;;;;24.57;100.00;100323.25;106135;1255;67025;-52